sensor_id;sensor_type;location;lat;lon;timestamp;P1;durP1;ratioP1;P2;durP2;ratioP2
17595;SDS011;8916;47.086;15.920;2022-11-09T00:01:42;38.80;;;22.45;;
17595;SDS011;8916;47.086;15.920;2022-11-09T00:04:12;42.00;;;22.67;;
17595;SDS011;8916;47.086;15.920;2022-11-09T00:06:42;40.40;;;21.70;;
17595;SDS011;8916;47.086;15.920;2022-11-09T00:09:11;35.92;;;22.35;;
17595;SDS011;8916;47.086;15.920;2022-11-09T00:11:40;42.65;;;22.27;;
17595;SDS011;8916;47.086;15.920;2022-11-09T00:14:12;36.33;;;21.00;;
17595;SDS011;8916;47.086;15.920;2022-11-09T00:16:42;37.25;;;20.35;;
17595;SDS011;8916;47.086;15.920;2022-11-09T00:19:11;32.60;;;19.55;;
17595;SDS011;8916;47.086;15.920;2022-11-09T00:21:40;33.50;;;19.05;;
17595;SDS011;8916;47.086;15.920;2022-11-09T00:24:11;33.55;;;18.27;;
17595;SDS011;8916;47.086;15.920;2022-11-09T00:26:40;31.35;;;17.00;;
17595;SDS011;8916;47.086;15.920;2022-11-09T00:29:09;33.88;;;18.02;;
17595;SDS011;8916;47.086;15.920;2022-11-09T00:31:40;31.25;;;16.67;;
17595;SDS011;8916;47.086;15.920;2022-11-09T00:34:09;31.63;;;16.48;;
17595;SDS011;8916;47.086;15.920;2022-11-09T00:36:42;40.45;;;19.17;;
17595;SDS011;8916;47.086;15.920;2022-11-09T00:39:12;34.85;;;18.23;;
17595;SDS011;8916;47.086;15.920;2022-11-09T00:41:41;34.17;;;18.25;;
17595;SDS011;8916;47.086;15.920;2022-11-09T00:44:11;32.83;;;16.90;;
17595;SDS011;8916;47.086;15.920;2022-11-09T00:46:40;34.90;;;18.88;;
17595;SDS011;8916;47.086;15.920;2022-11-09T00:49:10;36.63;;;19.05;;
17595;SDS011;8916;47.086;15.920;2022-11-09T00:51:40;34.85;;;19.38;;
17595;SDS011;8916;47.086;15.920;2022-11-09T00:54:10;34.40;;;17.77;;
17595;SDS011;8916;47.086;15.920;2022-11-09T00:56:40;34.83;;;18.20;;
17595;SDS011;8916;47.086;15.920;2022-11-09T00:59:09;31.98;;;16.35;;
17595;SDS011;8916;47.086;15.920;2022-11-09T01:01:39;24.40;;;14.93;;
17595;SDS011;8916;47.086;15.920;2022-11-09T01:04:08;23.30;;;13.52;;
17595;SDS011;8916;47.086;15.920;2022-11-09T01:06:37;27.98;;;14.45;;
17595;SDS011;8916;47.086;15.920;2022-11-09T01:09:08;26.30;;;14.45;;
17595;SDS011;8916;47.086;15.920;2022-11-09T01:11:38;25.65;;;14.77;;
17595;SDS011;8916;47.086;15.920;2022-11-09T01:14:07;30.13;;;15.32;;
17595;SDS011;8916;47.086;15.920;2022-11-09T01:16:37;26.98;;;14.05;;
17595;SDS011;8916;47.086;15.920;2022-11-09T01:19:07;25.55;;;14.50;;
17595;SDS011;8916;47.086;15.920;2022-11-09T01:21:36;25.92;;;14.82;;
17595;SDS011;8916;47.086;15.920;2022-11-09T01:24:05;23.60;;;14.48;;
17595;SDS011;8916;47.086;15.920;2022-11-09T01:26:34;21.80;;;12.93;;
17595;SDS011;8916;47.086;15.920;2022-11-09T01:29:05;21.90;;;13.60;;
17595;SDS011;8916;47.086;15.920;2022-11-09T01:31:34;26.20;;;13.52;;
17595;SDS011;8916;47.086;15.920;2022-11-09T01:34:03;22.05;;;14.18;;
17595;SDS011;8916;47.086;15.920;2022-11-09T01:36:32;26.33;;;15.88;;
17595;SDS011;8916;47.086;15.920;2022-11-09T01:39:01;25.58;;;16.08;;
17595;SDS011;8916;47.086;15.920;2022-11-09T01:41:30;32.28;;;16.75;;
17595;SDS011;8916;47.086;15.920;2022-11-09T01:44:09;25.70;;;15.93;;
17595;SDS011;8916;47.086;15.920;2022-11-09T01:46:42;24.92;;;15.30;;
17595;SDS011;8916;47.086;15.920;2022-11-09T01:49:21;29.08;;;15.18;;
17595;SDS011;8916;47.086;15.920;2022-11-09T01:52:09;25.95;;;15.60;;
17595;SDS011;8916;47.086;15.920;2022-11-09T01:54:44;26.17;;;16.48;;
17595;SDS011;8916;47.086;15.920;2022-11-09T01:57:17;27.02;;;16.60;;
17595;SDS011;8916;47.086;15.920;2022-11-09T01:59:53;25.73;;;15.70;;
17595;SDS011;8916;47.086;15.920;2022-11-09T02:02:39;28.52;;;15.60;;
17595;SDS011;8916;47.086;15.920;2022-11-09T02:05:16;28.25;;;15.05;;
17595;SDS011;8916;47.086;15.920;2022-11-09T02:07:53;25.98;;;14.38;;
17595;SDS011;8916;47.086;15.920;2022-11-09T02:10:25;22.20;;;14.60;;
17595;SDS011;8916;47.086;15.920;2022-11-09T02:13:00;22.67;;;13.88;;
17595;SDS011;8916;47.086;15.920;2022-11-09T02:15:37;25.08;;;13.82;;
17595;SDS011;8916;47.086;15.920;2022-11-09T02:18:12;22.40;;;13.95;;
17595;SDS011;8916;47.086;15.920;2022-11-09T02:20:44;26.23;;;14.00;;
17595;SDS011;8916;47.086;15.920;2022-11-09T02:23:16;23.10;;;12.13;;
17595;SDS011;8916;47.086;15.920;2022-11-09T02:25:47;22.92;;;13.57;;
17595;SDS011;8916;47.086;15.920;2022-11-09T02:28:20;25.55;;;12.82;;
17595;SDS011;8916;47.086;15.920;2022-11-09T02:30:51;26.92;;;12.55;;
17595;SDS011;8916;47.086;15.920;2022-11-09T02:33:24;27.45;;;14.38;;
17595;SDS011;8916;47.086;15.920;2022-11-09T02:35:55;28.67;;;14.60;;
17595;SDS011;8916;47.086;15.920;2022-11-09T02:38:25;34.45;;;16.08;;
17595;SDS011;8916;47.086;15.920;2022-11-09T02:40:54;34.55;;;16.55;;
17595;SDS011;8916;47.086;15.920;2022-11-09T02:43:23;45.03;;;17.40;;
17595;SDS011;8916;47.086;15.920;2022-11-09T02:45:52;51.72;;;21.73;;
17595;SDS011;8916;47.086;15.920;2022-11-09T02:48:21;48.80;;;21.35;;
17595;SDS011;8916;47.086;15.920;2022-11-09T02:50:50;43.00;;;18.02;;
17595;SDS011;8916;47.086;15.920;2022-11-09T02:53:21;53.33;;;20.58;;
17595;SDS011;8916;47.086;15.920;2022-11-09T02:55:51;76.30;;;21.45;;
17595;SDS011;8916;47.086;15.920;2022-11-09T02:58:20;51.10;;;19.85;;
17595;SDS011;8916;47.086;15.920;2022-11-09T03:00:49;104.32;;;23.52;;
17595;SDS011;8916;47.086;15.920;2022-11-09T03:03:22;66.40;;;22.38;;
17595;SDS011;8916;47.086;15.920;2022-11-09T03:05:51;64.25;;;22.63;;
17595;SDS011;8916;47.086;15.920;2022-11-09T03:08:22;74.90;;;28.08;;
17595;SDS011;8916;47.086;15.920;2022-11-09T03:10:51;83.25;;;31.55;;
17595;SDS011;8916;47.086;15.920;2022-11-09T03:13:20;134.00;;;33.88;;
17595;SDS011;8916;47.086;15.920;2022-11-09T03:15:50;88.03;;;32.97;;
17595;SDS011;8916;47.086;15.920;2022-11-09T03:18:19;90.10;;;31.63;;
17595;SDS011;8916;47.086;15.920;2022-11-09T03:20:49;89.53;;;33.38;;
17595;SDS011;8916;47.086;15.920;2022-11-09T03:23:18;138.73;;;35.42;;
17595;SDS011;8916;47.086;15.920;2022-11-09T03:25:48;129.82;;;34.28;;
17595;SDS011;8916;47.086;15.920;2022-11-09T03:28:17;201.00;;;38.00;;
17595;SDS011;8916;47.086;15.920;2022-11-09T03:30:47;311.02;;;48.95;;
17595;SDS011;8916;47.086;15.920;2022-11-09T03:33:16;128.73;;;33.92;;
17595;SDS011;8916;47.086;15.920;2022-11-09T03:35:46;146.05;;;35.13;;
17595;SDS011;8916;47.086;15.920;2022-11-09T03:38:17;298.95;;;41.60;;
17595;SDS011;8916;47.086;15.920;2022-11-09T03:40:49;104.75;;;33.67;;
17595;SDS011;8916;47.086;15.920;2022-11-09T03:43:18;136.13;;;31.92;;
17595;SDS011;8916;47.086;15.920;2022-11-09T03:45:47;88.72;;;26.85;;
17595;SDS011;8916;47.086;15.920;2022-11-09T03:48:16;86.30;;;24.58;;
17595;SDS011;8916;47.086;15.920;2022-11-09T03:50:45;111.05;;;24.20;;
17595;SDS011;8916;47.086;15.920;2022-11-09T03:53:15;103.53;;;24.00;;
17595;SDS011;8916;47.086;15.920;2022-11-09T03:55:44;118.72;;;24.73;;
17595;SDS011;8916;47.086;15.920;2022-11-09T03:58:15;119.32;;;24.05;;
17595;SDS011;8916;47.086;15.920;2022-11-09T04:00:44;126.75;;;24.88;;
17595;SDS011;8916;47.086;15.920;2022-11-09T04:03:13;240.68;;;27.63;;
17595;SDS011;8916;47.086;15.920;2022-11-09T04:05:42;233.45;;;28.85;;
17595;SDS011;8916;47.086;15.920;2022-11-09T04:08:11;96.70;;;22.88;;
17595;SDS011;8916;47.086;15.920;2022-11-09T04:10:40;133.63;;;25.15;;
17595;SDS011;8916;47.086;15.920;2022-11-09T04:13:09;67.68;;;22.88;;
17595;SDS011;8916;47.086;15.920;2022-11-09T04:15:39;163.85;;;26.80;;
17595;SDS011;8916;47.086;15.920;2022-11-09T04:18:10;193.20;;;30.30;;
17595;SDS011;8916;47.086;15.920;2022-11-09T04:20:56;268.80;;;32.72;;
17595;SDS011;8916;47.086;15.920;2022-11-09T04:23:26;315.02;;;38.22;;
17595;SDS011;8916;47.086;15.920;2022-11-09T04:25:56;278.38;;;39.35;;
17595;SDS011;8916;47.086;15.920;2022-11-09T04:28:26;261.88;;;38.17;;
17595;SDS011;8916;47.086;15.920;2022-11-09T04:30:59;129.60;;;32.17;;
17595;SDS011;8916;47.086;15.920;2022-11-09T04:33:29;232.75;;;42.40;;
17595;SDS011;8916;47.086;15.920;2022-11-09T04:36:01;216.55;;;43.05;;
17595;SDS011;8916;47.086;15.920;2022-11-09T04:38:31;257.45;;;42.00;;
17595;SDS011;8916;47.086;15.920;2022-11-09T04:41:03;246.20;;;41.30;;
17595;SDS011;8916;47.086;15.920;2022-11-09T04:43:32;259.85;;;42.08;;
17595;SDS011;8916;47.086;15.920;2022-11-09T04:46:03;99.82;;;34.63;;
17595;SDS011;8916;47.086;15.920;2022-11-09T04:48:33;261.35;;;42.67;;
17595;SDS011;8916;47.086;15.920;2022-11-09T04:51:03;119.75;;;32.45;;
17595;SDS011;8916;47.086;15.920;2022-11-09T04:53:36;112.18;;;33.78;;
17595;SDS011;8916;47.086;15.920;2022-11-09T04:56:08;93.25;;;31.83;;
17595;SDS011;8916;47.086;15.920;2022-11-09T04:58:38;115.32;;;32.13;;
17595;SDS011;8916;47.086;15.920;2022-11-09T05:01:09;90.38;;;30.23;;
17595;SDS011;8916;47.086;15.920;2022-11-09T05:03:40;111.82;;;31.92;;
17595;SDS011;8916;47.086;15.920;2022-11-09T05:06:10;101.65;;;33.22;;
17595;SDS011;8916;47.086;15.920;2022-11-09T05:08:57;180.57;;;35.80;;
17595;SDS011;8916;47.086;15.920;2022-11-09T05:11:28;96.68;;;30.85;;
17595;SDS011;8916;47.086;15.920;2022-11-09T05:13:57;110.22;;;31.77;;
17595;SDS011;8916;47.086;15.920;2022-11-09T05:16:29;99.50;;;31.15;;
17595;SDS011;8916;47.086;15.920;2022-11-09T05:18:58;87.90;;;32.33;;
17595;SDS011;8916;47.086;15.920;2022-11-09T05:21:27;102.57;;;31.52;;
17595;SDS011;8916;47.086;15.920;2022-11-09T05:23:57;83.55;;;29.75;;
17595;SDS011;8916;47.086;15.920;2022-11-09T05:26:29;97.20;;;31.10;;
17595;SDS011;8916;47.086;15.920;2022-11-09T05:29:00;81.55;;;30.20;;
17595;SDS011;8916;47.086;15.920;2022-11-09T05:31:34;146.43;;;36.30;;
17595;SDS011;8916;47.086;15.920;2022-11-09T05:34:04;121.15;;;32.65;;
17595;SDS011;8916;47.086;15.920;2022-11-09T05:36:34;130.43;;;34.80;;
17595;SDS011;8916;47.086;15.920;2022-11-09T05:39:03;155.38;;;36.13;;
17595;SDS011;8916;47.086;15.920;2022-11-09T05:41:32;216.55;;;43.08;;
17595;SDS011;8916;47.086;15.920;2022-11-09T05:44:02;221.50;;;40.38;;
17595;SDS011;8916;47.086;15.920;2022-11-09T05:46:32;102.75;;;34.10;;
17595;SDS011;8916;47.086;15.920;2022-11-09T05:49:02;200.18;;;39.17;;
17595;SDS011;8916;47.086;15.920;2022-11-09T05:51:31;192.63;;;40.17;;
17595;SDS011;8916;47.086;15.920;2022-11-09T05:54:00;90.70;;;33.28;;
17595;SDS011;8916;47.086;15.920;2022-11-09T05:56:29;116.10;;;36.88;;
17595;SDS011;8916;47.086;15.920;2022-11-09T05:58:58;121.25;;;35.17;;
17595;SDS011;8916;47.086;15.920;2022-11-09T06:01:28;211.73;;;39.53;;
17595;SDS011;8916;47.086;15.920;2022-11-09T06:03:58;102.75;;;34.72;;
17595;SDS011;8916;47.086;15.920;2022-11-09T06:06:27;140.73;;;34.63;;
17595;SDS011;8916;47.086;15.920;2022-11-09T06:08:56;103.13;;;32.83;;
17595;SDS011;8916;47.086;15.920;2022-11-09T06:11:25;90.13;;;31.65;;
17595;SDS011;8916;47.086;15.920;2022-11-09T06:13:55;87.00;;;30.63;;
17595;SDS011;8916;47.086;15.920;2022-11-09T06:16:24;105.18;;;30.70;;
17595;SDS011;8916;47.086;15.920;2022-11-09T06:18:53;79.78;;;28.73;;
17595;SDS011;8916;47.086;15.920;2022-11-09T06:21:23;74.18;;;28.77;;
17595;SDS011;8916;47.086;15.920;2022-11-09T06:23:52;80.82;;;29.00;;
17595;SDS011;8916;47.086;15.920;2022-11-09T06:26:21;73.18;;;28.40;;
17595;SDS011;8916;47.086;15.920;2022-11-09T06:28:50;129.98;;;30.58;;
17595;SDS011;8916;47.086;15.920;2022-11-09T06:31:19;66.00;;;25.73;;
17595;SDS011;8916;47.086;15.920;2022-11-09T06:33:48;92.43;;;30.85;;
17595;SDS011;8916;47.086;15.920;2022-11-09T06:36:18;80.22;;;29.05;;
17595;SDS011;8916;47.086;15.920;2022-11-09T06:38:49;73.18;;;28.15;;
17595;SDS011;8916;47.086;15.920;2022-11-09T06:41:19;77.38;;;29.30;;
17595;SDS011;8916;47.086;15.920;2022-11-09T06:43:48;77.30;;;28.42;;
17595;SDS011;8916;47.086;15.920;2022-11-09T06:46:17;101.03;;;30.98;;
17595;SDS011;8916;47.086;15.920;2022-11-09T06:48:47;103.57;;;33.33;;
17595;SDS011;8916;47.086;15.920;2022-11-09T06:51:20;107.88;;;31.02;;
17595;SDS011;8916;47.086;15.920;2022-11-09T06:53:51;153.95;;;35.08;;
17595;SDS011;8916;47.086;15.920;2022-11-09T06:56:20;80.95;;;30.05;;
17595;SDS011;8916;47.086;15.920;2022-11-09T06:58:49;78.85;;;28.88;;
17595;SDS011;8916;47.086;15.920;2022-11-09T07:01:18;122.60;;;34.28;;
17595;SDS011;8916;47.086;15.920;2022-11-09T07:03:54;140.50;;;34.70;;
17595;SDS011;8916;47.086;15.920;2022-11-09T07:06:23;96.97;;;32.35;;
17595;SDS011;8916;47.086;15.920;2022-11-09T07:08:55;125.53;;;33.35;;
17595;SDS011;8916;47.086;15.920;2022-11-09T07:11:24;100.70;;;31.90;;
17595;SDS011;8916;47.086;15.920;2022-11-09T07:13:53;114.45;;;30.63;;
17595;SDS011;8916;47.086;15.920;2022-11-09T07:16:24;93.78;;;31.08;;
17595;SDS011;8916;47.086;15.920;2022-11-09T07:18:53;94.40;;;34.08;;
17595;SDS011;8916;47.086;15.920;2022-11-09T07:21:22;97.28;;;31.63;;
17595;SDS011;8916;47.086;15.920;2022-11-09T07:23:51;80.93;;;28.77;;
17595;SDS011;8916;47.086;15.920;2022-11-09T07:26:23;83.30;;;29.55;;
17595;SDS011;8916;47.086;15.920;2022-11-09T07:28:53;91.85;;;30.83;;
17595;SDS011;8916;47.086;15.920;2022-11-09T07:31:22;154.48;;;33.53;;
17595;SDS011;8916;47.086;15.920;2022-11-09T07:33:55;106.15;;;31.20;;
17595;SDS011;8916;47.086;15.920;2022-11-09T07:36:25;100.25;;;31.45;;
17595;SDS011;8916;47.086;15.920;2022-11-09T07:38:54;100.03;;;31.65;;
17595;SDS011;8916;47.086;15.920;2022-11-09T07:41:24;90.10;;;28.33;;
17595;SDS011;8916;47.086;15.920;2022-11-09T07:44:00;81.40;;;29.52;;
17595;SDS011;8916;47.086;15.920;2022-11-09T07:46:29;71.25;;;27.80;;
17595;SDS011;8916;47.086;15.920;2022-11-09T07:48:58;84.80;;;29.20;;
17595;SDS011;8916;47.086;15.920;2022-11-09T07:51:27;84.10;;;28.55;;
17595;SDS011;8916;47.086;15.920;2022-11-09T07:53:56;80.93;;;29.15;;
17595;SDS011;8916;47.086;15.920;2022-11-09T07:56:27;81.35;;;30.60;;
17595;SDS011;8916;47.086;15.920;2022-11-09T07:58:56;75.00;;;31.05;;
17595;SDS011;8916;47.086;15.920;2022-11-09T08:01:25;82.75;;;38.88;;
17595;SDS011;8916;47.086;15.920;2022-11-09T08:03:54;96.30;;;40.90;;
17595;SDS011;8916;47.086;15.920;2022-11-09T08:06:23;75.80;;;34.85;;
17595;SDS011;8916;47.086;15.920;2022-11-09T08:08:54;62.67;;;26.88;;
17595;SDS011;8916;47.086;15.920;2022-11-09T08:11:23;59.58;;;27.35;;
17595;SDS011;8916;47.086;15.920;2022-11-09T08:13:54;65.57;;;30.50;;
17595;SDS011;8916;47.086;15.920;2022-11-09T08:16:24;65.72;;;31.42;;
17595;SDS011;8916;47.086;15.920;2022-11-09T08:19:02;50.35;;;24.92;;
17595;SDS011;8916;47.086;15.920;2022-11-09T08:21:33;55.08;;;23.80;;
17595;SDS011;8916;47.086;15.920;2022-11-09T08:24:03;64.53;;;23.83;;
17595;SDS011;8916;47.086;15.920;2022-11-09T08:26:32;56.50;;;22.10;;
17595;SDS011;8916;47.086;15.920;2022-11-09T08:29:03;54.97;;;23.58;;
17595;SDS011;8916;47.086;15.920;2022-11-09T08:31:32;72.13;;;23.60;;
17595;SDS011;8916;47.086;15.920;2022-11-09T08:34:01;51.17;;;22.77;;
17595;SDS011;8916;47.086;15.920;2022-11-09T08:36:30;53.72;;;22.35;;
17595;SDS011;8916;47.086;15.920;2022-11-09T08:39:00;57.30;;;24.58;;
17595;SDS011;8916;47.086;15.920;2022-11-09T08:41:29;64.05;;;23.92;;
17595;SDS011;8916;47.086;15.920;2022-11-09T08:43:58;54.47;;;25.13;;
17595;SDS011;8916;47.086;15.920;2022-11-09T08:46:28;59.08;;;26.40;;
17595;SDS011;8916;47.086;15.920;2022-11-09T08:49:00;59.65;;;26.25;;
17595;SDS011;8916;47.086;15.920;2022-11-09T08:51:29;64.72;;;25.40;;
17595;SDS011;8916;47.086;15.920;2022-11-09T08:53:58;53.30;;;24.83;;
17595;SDS011;8916;47.086;15.920;2022-11-09T08:56:27;55.78;;;25.52;;
17595;SDS011;8916;47.086;15.920;2022-11-09T08:58:56;48.38;;;24.27;;
17595;SDS011;8916;47.086;15.920;2022-11-09T09:01:25;51.95;;;23.15;;
17595;SDS011;8916;47.086;15.920;2022-11-09T09:03:56;51.97;;;24.23;;
17595;SDS011;8916;47.086;15.920;2022-11-09T09:06:25;48.25;;;23.50;;
17595;SDS011;8916;47.086;15.920;2022-11-09T09:08:57;52.70;;;24.25;;
17595;SDS011;8916;47.086;15.920;2022-11-09T09:11:26;53.05;;;24.42;;
17595;SDS011;8916;47.086;15.920;2022-11-09T09:13:56;44.50;;;23.65;;
17595;SDS011;8916;47.086;15.920;2022-11-09T09:16:26;56.20;;;23.98;;
17595;SDS011;8916;47.086;15.920;2022-11-09T09:18:57;47.83;;;23.05;;
17595;SDS011;8916;47.086;15.920;2022-11-09T09:21:26;45.15;;;21.98;;
17595;SDS011;8916;47.086;15.920;2022-11-09T09:23:55;47.53;;;23.90;;
17595;SDS011;8916;47.086;15.920;2022-11-09T09:26:24;52.10;;;22.60;;
17595;SDS011;8916;47.086;15.920;2022-11-09T09:28:53;51.92;;;22.50;;
17595;SDS011;8916;47.086;15.920;2022-11-09T09:31:22;54.15;;;24.42;;
17595;SDS011;8916;47.086;15.920;2022-11-09T09:33:51;59.22;;;26.60;;
17595;SDS011;8916;47.086;15.920;2022-11-09T09:36:22;59.40;;;25.98;;
17595;SDS011;8916;47.086;15.920;2022-11-09T09:38:52;49.38;;;23.95;;
17595;SDS011;8916;47.086;15.920;2022-11-09T09:41:22;54.03;;;25.10;;
17595;SDS011;8916;47.086;15.920;2022-11-09T09:43:57;46.97;;;23.20;;
17595;SDS011;8916;47.086;15.920;2022-11-09T09:46:35;55.45;;;24.80;;
17595;SDS011;8916;47.086;15.920;2022-11-09T09:49:17;52.13;;;24.08;;
17595;SDS011;8916;47.086;15.920;2022-11-09T09:51:52;52.00;;;24.77;;
17595;SDS011;8916;47.086;15.920;2022-11-09T09:54:28;49.33;;;24.73;;
17595;SDS011;8916;47.086;15.920;2022-11-09T09:57:02;51.03;;;24.55;;
17595;SDS011;8916;47.086;15.920;2022-11-09T09:59:33;47.92;;;24.30;;
17595;SDS011;8916;47.086;15.920;2022-11-09T10:02:09;50.42;;;23.55;;
17595;SDS011;8916;47.086;15.920;2022-11-09T10:04:48;48.13;;;22.65;;
17595;SDS011;8916;47.086;15.920;2022-11-09T10:07:20;56.33;;;24.77;;
17595;SDS011;8916;47.086;15.920;2022-11-09T10:10:02;48.75;;;23.85;;
17595;SDS011;8916;47.086;15.920;2022-11-09T10:12:50;46.97;;;24.58;;
17595;SDS011;8916;47.086;15.920;2022-11-09T10:15:46;52.90;;;26.75;;
17595;SDS011;8916;47.086;15.920;2022-11-09T10:18:25;50.57;;;25.47;;
17595;SDS011;8916;47.086;15.920;2022-11-09T10:21:14;70.32;;;26.63;;
17595;SDS011;8916;47.086;15.920;2022-11-09T10:23:58;60.50;;;27.92;;
17595;SDS011;8916;47.086;15.920;2022-11-09T10:26:46;56.35;;;27.35;;
17595;SDS011;8916;47.086;15.920;2022-11-09T10:29:19;52.53;;;25.42;;
17595;SDS011;8916;47.086;15.920;2022-11-09T10:31:51;55.13;;;26.98;;
17595;SDS011;8916;47.086;15.920;2022-11-09T10:34:24;52.72;;;26.48;;
17595;SDS011;8916;47.086;15.920;2022-11-09T10:36:58;51.38;;;25.90;;
17595;SDS011;8916;47.086;15.920;2022-11-09T10:39:38;50.60;;;25.67;;
17595;SDS011;8916;47.086;15.920;2022-11-09T10:42:29;52.90;;;25.48;;
17595;SDS011;8916;47.086;15.920;2022-11-09T10:45:20;45.63;;;23.40;;
17595;SDS011;8916;47.086;15.920;2022-11-09T10:48:24;46.70;;;24.42;;
17595;SDS011;8916;47.086;15.920;2022-11-09T10:51:31;43.28;;;23.38;;
17595;SDS011;8916;47.086;15.920;2022-11-09T10:54:26;46.60;;;24.02;;
17595;SDS011;8916;47.086;15.920;2022-11-09T10:57:19;45.47;;;23.92;;
17595;SDS011;8916;47.086;15.920;2022-11-09T11:00:12;42.55;;;23.15;;
17595;SDS011;8916;47.086;15.920;2022-11-09T11:03:09;48.03;;;23.77;;
17595;SDS011;8916;47.086;15.920;2022-11-09T11:06:02;49.65;;;25.92;;
17595;SDS011;8916;47.086;15.920;2022-11-09T11:08:53;45.30;;;24.00;;
17595;SDS011;8916;47.086;15.920;2022-11-09T11:12:10;52.00;;;26.45;;
17595;SDS011;8916;47.086;15.920;2022-11-09T11:15:03;49.08;;;25.13;;
17595;SDS011;8916;47.086;15.920;2022-11-09T11:18:12;49.28;;;26.30;;
17595;SDS011;8916;47.086;15.920;2022-11-09T11:21:08;52.78;;;26.00;;
17595;SDS011;8916;47.086;15.920;2022-11-09T11:24:14;51.28;;;26.88;;
17595;SDS011;8916;47.086;15.920;2022-11-09T11:27:05;57.38;;;28.27;;
17595;SDS011;8916;47.086;15.920;2022-11-09T11:30:02;53.83;;;26.08;;
17595;SDS011;8916;47.086;15.920;2022-11-09T11:32:57;52.10;;;26.02;;
17595;SDS011;8916;47.086;15.920;2022-11-09T11:38:38;49.65;;;26.40;;
17595;SDS011;8916;47.086;15.920;2022-11-09T11:41:37;48.13;;;25.23;;
17595;SDS011;8916;47.086;15.920;2022-11-09T11:44:50;46.92;;;25.25;;
17595;SDS011;8916;47.086;15.920;2022-11-09T11:48:20;57.80;;;27.33;;
17595;SDS011;8916;47.086;15.920;2022-11-09T11:51:32;55.65;;;27.02;;
17595;SDS011;8916;47.086;15.920;2022-11-09T11:54:33;53.17;;;27.20;;
17595;SDS011;8916;47.086;15.920;2022-11-09T11:57:32;50.63;;;25.30;;
17595;SDS011;8916;47.086;15.920;2022-11-09T12:00:31;55.03;;;26.80;;
17595;SDS011;8916;47.086;15.920;2022-11-09T12:03:36;50.47;;;25.63;;
17595;SDS011;8916;47.086;15.920;2022-11-09T12:06:42;46.30;;;24.02;;
17595;SDS011;8916;47.086;15.920;2022-11-09T12:09:57;48.30;;;24.40;;
17595;SDS011;8916;47.086;15.920;2022-11-09T12:13:01;52.97;;;25.40;;
17595;SDS011;8916;47.086;15.920;2022-11-09T12:15:58;51.30;;;26.87;;
17595;SDS011;8916;47.086;15.920;2022-11-09T12:18:59;49.67;;;25.35;;
17595;SDS011;8916;47.086;15.920;2022-11-09T12:22:21;59.28;;;27.08;;
17595;SDS011;8916;47.086;15.920;2022-11-09T12:25:21;53.78;;;27.00;;
17595;SDS011;8916;47.086;15.920;2022-11-09T12:28:17;55.90;;;28.05;;
17595;SDS011;8916;47.086;15.920;2022-11-09T12:31:22;50.00;;;25.67;;
17595;SDS011;8916;47.086;15.920;2022-11-09T12:34:22;54.35;;;27.15;;
17595;SDS011;8916;47.086;15.920;2022-11-09T12:37:17;52.92;;;27.77;;
17595;SDS011;8916;47.086;15.920;2022-11-09T12:40:12;59.67;;;28.90;;
17595;SDS011;8916;47.086;15.920;2022-11-09T12:43:12;60.40;;;29.88;;
17595;SDS011;8916;47.086;15.920;2022-11-09T12:46:06;62.55;;;30.67;;
17595;SDS011;8916;47.086;15.920;2022-11-09T12:48:57;48.15;;;25.75;;
17595;SDS011;8916;47.086;15.920;2022-11-09T12:51:52;50.67;;;25.88;;
17595;SDS011;8916;47.086;15.920;2022-11-09T12:54:44;51.80;;;26.83;;
17595;SDS011;8916;47.086;15.920;2022-11-09T12:57:35;56.65;;;28.55;;
17595;SDS011;8916;47.086;15.920;2022-11-09T13:03:37;48.13;;;24.88;;
17595;SDS011;8916;47.086;15.920;2022-11-09T13:06:37;49.20;;;24.70;;
17595;SDS011;8916;47.086;15.920;2022-11-09T13:09:28;44.65;;;23.08;;
17595;SDS011;8916;47.086;15.920;2022-11-09T13:12:33;44.50;;;23.13;;
17595;SDS011;8916;47.086;15.920;2022-11-09T13:15:25;51.25;;;24.95;;
17595;SDS011;8916;47.086;15.920;2022-11-09T13:18:21;45.47;;;23.52;;
17595;SDS011;8916;47.086;15.920;2022-11-09T13:27:45;43.25;;;23.23;;
17595;SDS011;8916;47.086;15.920;2022-11-09T13:33:30;48.67;;;27.52;;
17595;SDS011;8916;47.086;15.920;2022-11-09T13:42:28;55.65;;;28.90;;
17595;SDS011;8916;47.086;15.920;2022-11-09T13:45:25;51.88;;;29.45;;
17595;SDS011;8916;47.086;15.920;2022-11-09T13:48:28;51.33;;;27.77;;
17595;SDS011;8916;47.086;15.920;2022-11-09T13:51:20;52.20;;;27.00;;
17595;SDS011;8916;47.086;15.920;2022-11-09T13:54:27;46.03;;;24.77;;
17595;SDS011;8916;47.086;15.920;2022-11-09T13:57:18;48.45;;;27.15;;
17595;SDS011;8916;47.086;15.920;2022-11-09T14:00:13;54.05;;;26.77;;
17595;SDS011;8916;47.086;15.920;2022-11-09T14:03:15;56.28;;;28.05;;
17595;SDS011;8916;47.086;15.920;2022-11-09T14:08:58;64.75;;;29.83;;
17595;SDS011;8916;47.086;15.920;2022-11-09T14:11:55;58.75;;;29.48;;
17595;SDS011;8916;47.086;15.920;2022-11-09T14:14:57;70.55;;;32.33;;
17595;SDS011;8916;47.086;15.920;2022-11-09T14:18:08;69.68;;;30.80;;
17595;SDS011;8916;47.086;15.920;2022-11-09T14:21:13;62.90;;;30.10;;
17595;SDS011;8916;47.086;15.920;2022-11-09T14:24:15;63.22;;;29.90;;
17595;SDS011;8916;47.086;15.920;2022-11-09T14:27:12;66.57;;;31.00;;
17595;SDS011;8916;47.086;15.920;2022-11-09T14:30:13;68.28;;;30.52;;
17595;SDS011;8916;47.086;15.920;2022-11-09T14:36:21;63.08;;;29.60;;
17595;SDS011;8916;47.086;15.920;2022-11-09T14:39:13;62.72;;;29.92;;
17595;SDS011;8916;47.086;15.920;2022-11-09T14:42:10;78.88;;;35.33;;
17595;SDS011;8916;47.086;15.920;2022-11-09T14:45:03;73.55;;;32.58;;
17595;SDS011;8916;47.086;15.920;2022-11-09T14:48:00;73.20;;;31.63;;
17595;SDS011;8916;47.086;15.920;2022-11-09T14:50:48;78.05;;;33.10;;
17595;SDS011;8916;47.086;15.920;2022-11-09T14:53:37;68.07;;;31.70;;
17595;SDS011;8916;47.086;15.920;2022-11-09T14:56:28;65.78;;;30.83;;
17595;SDS011;8916;47.086;15.920;2022-11-09T14:59:20;67.18;;;30.23;;
17595;SDS011;8916;47.086;15.920;2022-11-09T15:02:15;68.13;;;32.03;;
17595;SDS011;8916;47.086;15.920;2022-11-09T15:05:25;65.95;;;30.58;;
17595;SDS011;8916;47.086;15.920;2022-11-09T15:08:23;70.40;;;32.35;;
17595;SDS011;8916;47.086;15.920;2022-11-09T15:13:58;70.32;;;32.72;;
17595;SDS011;8916;47.086;15.920;2022-11-09T15:17:11;72.03;;;32.43;;
17595;SDS011;8916;47.086;15.920;2022-11-09T15:20:21;78.93;;;33.75;;
17595;SDS011;8916;47.086;15.920;2022-11-09T15:23:21;72.32;;;30.20;;
17595;SDS011;8916;47.086;15.920;2022-11-09T15:26:33;71.88;;;33.92;;
17595;SDS011;8916;47.086;15.920;2022-11-09T15:29:28;80.55;;;33.33;;
17595;SDS011;8916;47.086;15.920;2022-11-09T15:32:25;75.85;;;33.67;;
17595;SDS011;8916;47.086;15.920;2022-11-09T15:35:14;75.03;;;31.60;;
17595;SDS011;8916;47.086;15.920;2022-11-09T15:38:25;73.07;;;30.75;;
17595;SDS011;8916;47.086;15.920;2022-11-09T15:41:23;73.90;;;31.77;;
17595;SDS011;8916;47.086;15.920;2022-11-09T15:44:13;83.95;;;35.17;;
17595;SDS011;8916;47.086;15.920;2022-11-09T15:47:02;82.72;;;35.63;;
17595;SDS011;8916;47.086;15.920;2022-11-09T15:49:50;70.85;;;31.85;;
17595;SDS011;8916;47.086;15.920;2022-11-09T15:52:38;72.13;;;31.88;;
17595;SDS011;8916;47.086;15.920;2022-11-09T15:55:29;78.80;;;33.50;;